Time;durP1;ratioP1;P1;durP2;ratioP2;P2;SDS_P1;SDS_P2;PMS_P1;PMS_P2;Temp;Humidity;BMP_temperature;BMP_pressure;BME280_temperature;BME280_humidity;BME280_pressure;Samples;Min_cycle;Max_cycle;Signal;HPM_P1;HPM_P2
2022/01/20 00:01:06;;;;;;;5.20;3.90;;;;;;;;;;4768353;30;20654;-87
2022/01/20 00:04:18;;;;;;;5.33;3.70;;;;;;;;;;4771478;30;20603;-86
2022/01/20 00:07:35;;;;;;;6.93;4.07;;;;;;;;;;4760700;30;20552;-87
2022/01/20 00:27:26;;;;;;;5.10;3.60;;;;;;;;;;4770318;30;20560;-86
2022/01/20 00:37:19;;;;;;;5.47;3.93;;;;;;;;;;4770325;30;20559;-86
2022/01/20 00:40:16;;;;;;;5.10;3.70;;;;;;;;;;4770174;30;20634;-86
2022/01/20 00:43:20;;;;;;;5.47;3.67;;;;;;;;;;4752963;30;20596;-87
2022/01/20 00:46:24;;;;;;;5.23;3.93;;;;;;;;;;4770291;30;20551;-86
2022/01/20 00:49:28;;;;;;;5.87;4.03;;;;;;;;;;4752793;30;20631;-86
2022/01/20 00:52:34;;;;;;;6.13;4.33;;;;;;;;;;4754175;30;20663;-87
2022/01/20 00:55:39;;;;;;;6.43;3.77;;;;;;;;;;4742255;30;21159;-87
2022/01/20 00:58:43;;;;;;;5.47;3.93;;;;;;;;;;4751886;30;20556;-87
2022/01/20 01:01:48;;;;;;;5.63;3.83;;;;;;;;;;4763171;30;20651;-87
2022/01/20 01:04:52;;;;;;;5.53;4.00;;;;;;;;;;4749751;30;21160;-86
2022/01/20 01:07:57;;;;;;;5.40;3.83;;;;;;;;;;4752199;30;20557;-87
2022/01/20 01:11:01;;;;;;;5.57;3.90;;;;;;;;;;4759340;30;20622;-87
2022/01/20 01:14:06;;;;;;;4.93;3.40;;;;;;;;;;4745101;30;20693;-86
2022/01/20 01:20:17;;;;;;;5.97;3.33;;;;;;;;;;4768997;30;20658;-86
2022/01/20 01:23:21;;;;;;;6.03;4.00;;;;;;;;;;4768037;30;20551;-86
2022/01/20 01:26:28;;;;;;;5.47;3.23;;;;;;;;;;4751665;30;21088;-86
2022/01/20 01:36:12;;;;;;;4.47;3.30;;;;;;;;;;4762082;30;20553;-86
2022/01/20 01:39:17;;;;;;;5.80;3.40;;;;;;;;;;4745577;30;20944;-87
2022/01/20 01:42:27;;;;;;;4.47;3.47;;;;;;;;;;4759271;30;20925;-86
2022/01/20 01:45:39;;;;;;;5.37;4.10;;;;;;;;;;4741795;30;20608;-86
2022/01/20 01:48:46;;;;;;;5.07;3.40;;;;;;;;;;4750995;30;20616;-87
2022/01/20 01:51:50;;;;;;;3.70;3.13;;;;;;;;;;4761549;30;20635;-86
2022/01/20 01:54:55;;;;;;;5.37;3.53;;;;;;;;;;4762607;30;20592;-86
2022/01/20 01:57:59;;;;;;;3.93;2.90;;;;;;;;;;4768982;30;20555;-87
2022/01/20 02:01:04;;;;;;;3.97;2.93;;;;;;;;;;4758384;30;20662;-86
2022/01/20 02:04:15;;;;;;;6.17;3.50;;;;;;;;;;4752282;30;20596;-86
2022/01/20 02:20:42;;;;;;;5.03;3.37;;;;;;;;;;4750793;30;20984;-87
2022/01/20 02:23:51;;;;;;;5.13;3.47;;;;;;;;;;4754675;30;21198;-86
2022/01/20 02:26:56;;;;;;;5.27;3.40;;;;;;;;;;4758131;30;20559;-86
2022/01/20 02:30:06;;;;;;;4.20;2.90;;;;;;;;;;4750568;30;20627;-87
2022/01/20 02:33:16;;;;;;;4.47;2.80;;;;;;;;;;4740380;30;20648;-86
2022/01/20 02:36:21;;;;;;;4.90;3.37;;;;;;;;;;4741109;30;20557;-86
2022/01/20 02:45:55;;;;;;;3.63;3.00;;;;;;;;;;4767431;30;20599;-86
2022/01/20 02:49:00;;;;;;;5.07;3.03;;;;;;;;;;4763444;30;20958;-86
2022/01/20 02:52:06;;;;;;;5.97;3.50;;;;;;;;;;4750338;30;20553;-87
2022/01/20 02:55:10;;;;;;;4.80;3.07;;;;;;;;;;4750495;30;20553;-86
2022/01/20 02:58:15;;;;;;;4.97;3.17;;;;;;;;;;4750247;30;20616;-86
2022/01/20 03:01:19;;;;;;;4.63;3.07;;;;;;;;;;4749667;30;20663;-86
2022/01/20 03:04:26;;;;;;;4.87;3.10;;;;;;;;;;4739850;30;20607;-86
2022/01/20 03:07:31;;;;;;;6.77;3.33;;;;;;;;;;4751365;30;20611;-86
2022/01/20 03:10:37;;;;;;;4.37;2.80;;;;;;;;;;4750503;30;20655;-87
2022/01/20 03:13:41;;;;;;;3.73;3.00;;;;;;;;;;4750276;30;20608;-86
2022/01/20 03:16:46;;;;;;;3.70;3.10;;;;;;;;;;4752404;30;20599;-86
2022/01/20 03:19:51;;;;;;;4.77;2.77;;;;;;;;;;4758873;30;20592;-87
2022/01/20 03:22:55;;;;;;;6.00;3.93;;;;;;;;;;4739839;30;20899;-87
2022/01/20 03:25:59;;;;;;;4.23;3.17;;;;;;;;;;4749585;30;20604;-86
2022/01/20 03:29:05;;;;;;;5.57;3.37;;;;;;;;;;4756366;30;20944;-86
2022/01/20 03:32:09;;;;;;;5.10;3.13;;;;;;;;;;4756929;30;20603;-86
2022/01/20 03:35:14;;;;;;;5.17;3.30;;;;;;;;;;4757510;30;20548;-87
2022/01/20 03:38:24;;;;;;;4.53;3.30;;;;;;;;;;4750993;30;20631;-86
2022/01/20 03:41:32;;;;;;;5.10;3.47;;;;;;;;;;4749216;30;20671;-86
2022/01/20 03:44:37;;;;;;;5.53;3.30;;;;;;;;;;4759966;30;20548;-86
2022/01/20 03:47:42;;;;;;;5.10;3.70;;;;;;;;;;4764719;30;20600;-86
2022/01/20 03:51:02;;;;;;;4.70;3.50;;;;;;;;;;4777343;30;20626;-86
2022/01/20 03:54:08;;;;;;;5.07;3.77;;;;;;;;;;4749084;30;20641;-87
2022/01/20 03:57:41;;;;;;;5.20;3.87;;;;;;;;;;4763939;30;20607;-86
2022/01/20 04:00:57;;;;;;;7.07;4.27;;;;;;;;;;4778810;30;21214;-86
2022/01/20 04:04:14;;;;;;;6.47;4.20;;;;;;;;;;4759181;30;20607;-86
2022/01/20 04:07:29;;;;;;;5.67;4.07;;;;;;;;;;4767266;30;20627;-86
2022/01/20 04:10:34;;;;;;;6.50;4.13;;;;;;;;;;4777309;30;20627;-86
2022/01/20 04:13:39;;;;;;;6.87;4.17;;;;;;;;;;4757373;30;20603;-86
2022/01/20 04:17:02;;;;;;;6.30;4.10;;;;;;;;;;4756290;30;20604;-86
2022/01/20 04:20:08;;;;;;;5.63;3.90;;;;;;;;;;4749293;30;20656;-86
2022/01/20 04:23:12;;;;;;;6.70;4.73;;;;;;;;;;4749568;30;20553;-87
2022/01/20 04:26:16;;;;;;;6.83;4.50;;;;;;;;;;4769812;30;20545;-86
2022/01/20 04:29:21;;;;;;;6.40;4.33;;;;;;;;;;4738925;30;20615;-87
2022/01/20 04:32:25;;;;;;;7.87;5.00;;;;;;;;;;4751796;30;20611;-87
2022/01/20 04:35:29;;;;;;;6.83;4.67;;;;;;;;;;4742708;30;20647;-86
2022/01/20 04:38:35;;;;;;;7.53;5.17;;;;;;;;;;4755189;30;20607;-87
2022/01/20 04:41:40;;;;;;;7.07;4.40;;;;;;;;;;4780173;30;20647;-86
2022/01/20 04:44:53;;;;;;;7.23;4.70;;;;;;;;;;4760001;30;20544;-86
2022/01/20 04:58:26;;;;;;;8.50;5.20;;;;;;;;;;4757373;30;20958;-86
2022/01/20 05:01:30;;;;;;;6.87;5.23;;;;;;;;;;4752579;30;20655;-85
2022/01/20 05:04:44;;;;;;;7.37;5.27;;;;;;;;;;4752136;30;20549;-85
2022/01/20 05:07:55;;;;;;;8.20;5.13;;;;;;;;;;4742778;30;20977;-85
2022/01/20 05:11:02;;;;;;;7.63;5.30;;;;;;;;;;4751844;30;20632;-85
2022/01/20 05:14:07;;;;;;;7.93;4.93;;;;;;;;;;4772246;30;21151;-85
2022/01/20 05:17:11;;;;;;;7.57;5.13;;;;;;;;;;4761246;30;20628;-85
2022/01/20 05:20:17;;;;;;;9.17;5.50;;;;;;;;;;4743317;30;20647;-85
2022/01/20 05:23:21;;;;;;;9.10;5.73;;;;;;;;;;4762909;30;20604;-85
2022/01/20 05:26:27;;;;;;;8.40;5.97;;;;;;;;;;4751882;30;20616;-85
2022/01/20 05:29:31;;;;;;;7.93;5.23;;;;;;;;;;4758993;30;20618;-85
2022/01/20 05:32:35;;;;;;;7.67;5.60;;;;;;;;;;4742175;30;20893;-85
2022/01/20 05:35:40;;;;;;;7.13;4.93;;;;;;;;;;4751857;30;20604;-85
2022/01/20 05:38:44;;;;;;;7.07;5.30;;;;;;;;;;4742046;30;20886;-84
2022/01/20 05:41:49;;;;;;;9.57;5.30;;;;;;;;;;4761431;30;21002;-85
2022/01/20 05:45:04;;;;;;;6.40;4.87;;;;;;;;;;4760596;30;20597;-85
2022/01/20 05:48:12;;;;;;;7.90;4.90;;;;;;;;;;4751522;30;20560;-85
2022/01/20 05:51:36;;;;;;;8.07;5.67;;;;;;;;;;4764500;30;20647;-85
2022/01/20 05:54:40;;;;;;;7.13;5.07;;;;;;;;;;4759941;30;20635;-85
2022/01/20 05:57:46;;;;;;;8.00;5.33;;;;;;;;;;4751345;30;20556;-86
2022/01/20 06:00:51;;;;;;;7.67;4.93;;;;;;;;;;4751666;30;21009;-85
2022/01/20 06:03:56;;;;;;;10.30;6.03;;;;;;;;;;4748912;30;20604;-85
2022/01/20 06:07:03;;;;;;;7.70;5.53;;;;;;;;;;4741485;30;20549;-84
2022/01/20 06:10:08;;;;;;;7.33;5.30;;;;;;;;;;4751204;30;21246;-85
2022/01/20 06:13:13;;;;;;;10.03;5.40;;;;;;;;;;4759737;30;20658;-86
2022/01/20 06:16:17;;;;;;;7.20;5.57;;;;;;;;;;4758988;30;20595;-86
2022/01/20 06:19:21;;;;;;;6.33;5.03;;;;;;;;;;4757738;30;20551;-86
2022/01/20 06:22:25;;;;;;;7.27;5.07;;;;;;;;;;4759160;30;20599;-86
2022/01/20 06:25:30;;;;;;;7.37;5.37;;;;;;;;;;4751602;30;20592;-85
2022/01/20 06:28:35;;;;;;;8.10;5.40;;;;;;;;;;4751235;30;20560;-88
2022/01/20 06:31:41;;;;;;;7.33;5.13;;;;;;;;;;4751856;30;21001;-88
2022/01/20 06:34:46;;;;;;;7.67;4.97;;;;;;;;;;4759160;30;20632;-85
2022/01/20 06:37:51;;;;;;;7.70;5.67;;;;;;;;;;4751498;30;20603;-88
2022/01/20 06:40:55;;;;;;;7.10;5.00;;;;;;;;;;4758078;30;20655;-85
2022/01/20 06:43:58;;;;;;;7.83;5.30;;;;;;;;;;4757956;30;20595;-88
2022/01/20 06:47:03;;;;;;;10.97;4.83;;;;;;;;;;4750588;30;20588;-87
2022/01/20 06:50:12;;;;;;;4.67;4.13;;;;;;;;;;4750282;30;20655;-86
2022/01/20 06:53:18;;;;;;;7.87;5.40;;;;;;;;;;4752653;30;20588;-86
2022/01/20 06:56:22;;;;;;;5.30;4.57;;;;;;;;;;4740484;30;21073;-89
2022/01/20 06:59:26;;;;;;;7.50;5.07;;;;;;;;;;4761710;30;20622;-86
2022/01/20 07:02:30;;;;;;;6.77;4.77;;;;;;;;;;4757715;30;20615;-85
2022/01/20 07:05:35;;;;;;;6.80;4.67;;;;;;;;;;4768304;30;20552;-85
2022/01/20 07:08:39;;;;;;;7.30;5.10;;;;;;;;;;4768173;30;20543;-86
2022/01/20 07:11:45;;;;;;;6.77;4.97;;;;;;;;;;4746181;30;20652;-88
2022/01/20 07:14:49;;;;;;;7.63;5.13;;;;;;;;;;4740029;30;20604;-86
2022/01/20 07:17:54;;;;;;;7.40;5.20;;;;;;;;;;4740611;30;20553;-85
2022/01/20 07:21:02;;;;;;;6.77;5.10;;;;;;;;;;4742417;29;20632;-88
2022/01/20 07:24:13;;;;;;;6.50;5.13;;;;;;;;;;4775574;30;20615;-85
2022/01/20 07:27:18;;;;;;;6.43;5.47;;;;;;;;;;4757986;30;20543;-86
2022/01/20 07:30:22;;;;;;;6.70;5.30;;;;;;;;;;4768001;30;20631;-86
2022/01/20 07:33:27;;;;;;;7.93;5.50;;;;;;;;;;4767766;30;20559;-86
2022/01/20 07:36:34;;;;;;;8.70;5.63;;;;;;;;;;4759816;30;20581;-85
2022/01/20 07:39:38;;;;;;;8.43;5.30;;;;;;;;;;4749747;30;20553;-85
2022/01/20 07:42:43;;;;;;;7.97;5.73;;;;;;;;;;4739938;30;20886;-85
2022/01/20 07:45:55;;;;;;;6.77;5.23;;;;;;;;;;4740629;30;20552;-85
2022/01/20 07:49:12;;;;;;;5.87;5.00;;;;;;;;;;4741002;30;20564;-85
2022/01/20 07:52:18;;;;;;;7.77;6.17;;;;;;;;;;4739767;30;20556;-85
2022/01/20 07:55:22;;;;;;;11.20;7.90;;;;;;;;;;4749517;30;20616;-85
2022/01/20 07:58:26;;;;;;;7.87;5.83;;;;;;;;;;4739853;30;20553;-86
2022/01/20 08:01:30;;;;;;;7.37;5.40;;;;;;;;;;4739194;30;20648;-86
2022/01/20 08:04:41;;;;;;;10.53;7.07;;;;;;;;;;4740272;30;20553;-85
2022/01/20 08:07:48;;;;;;;8.93;5.90;;;;;;;;;;4752455;30;20557;-86
2022/01/20 08:10:52;;;;;;;6.73;4.90;;;;;;;;;;4742905;30;20643;-86
2022/01/20 08:13:58;;;;;;;6.60;5.30;;;;;;;;;;4753082;30;20548;-86
2022/01/20 08:17:03;;;;;;;12.87;6.97;;;;;;;;;;4743009;30;21081;-86
2022/01/20 08:20:12;;;;;;;9.03;5.80;;;;;;;;;;4752662;30;20647;-86
2022/01/20 08:23:16;;;;;;;8.80;6.00;;;;;;;;;;4742598;30;20615;-86
2022/01/20 08:26:20;;;;;;;7.77;6.37;;;;;;;;;;4742714;30;20564;-86
2022/01/20 08:29:24;;;;;;;8.20;5.90;;;;;;;;;;4742538;30;20568;-86
2022/01/20 08:32:30;;;;;;;10.90;5.50;;;;;;;;;;4742751;30;21100;-86
2022/01/20 08:35:45;;;;;;;6.70;5.17;;;;;;;;;;4744163;30;20604;-86
2022/01/20 08:38:50;;;;;;;6.63;4.67;;;;;;;;;;4752789;30;20549;-86
2022/01/20 08:41:55;;;;;;;5.97;4.43;;;;;;;;;;4742471;30;20636;-86
2022/01/20 08:44:59;;;;;;;7.30;5.13;;;;;;;;;;4752432;30;20548;-86
2022/01/20 08:48:04;;;;;;;6.33;4.40;;;;;;;;;;4757990;30;20580;-86
2022/01/20 08:51:28;;;;;;;5.80;4.43;;;;;;;;;;4744557;30;20636;-86
2022/01/20 08:54:47;;;;;;;4.87;4.20;;;;;;;;;;4743855;30;20950;-86
2022/01/20 08:58:06;;;;;;;5.13;4.00;;;;;;;;;;4744163;30;20556;-86
2022/01/20 09:01:11;;;;;;;5.60;3.90;;;;;;;;;;4742114;30;20647;-86
2022/01/20 09:04:15;;;;;;;4.37;3.80;;;;;;;;;;4751947;30;20616;-86
2022/01/20 09:07:39;;;;;;;4.53;3.67;;;;;;;;;;4764728;30;20552;-87
2022/01/20 09:10:51;;;;;;;5.47;3.50;;;;;;;;;;4754463;30;20654;-86
2022/01/20 09:17:26;;;;;;;4.23;3.20;;;;;;;;;;4764840;29;20592;-88
2022/01/20 09:20:32;;;;;;;5.27;3.73;;;;;;;;;;4751825;30;20631;-85
2022/01/20 09:23:36;;;;;;;4.77;3.50;;;;;;;;;;4755704;30;20599;-86
2022/01/20 09:26:41;;;;;;;5.27;3.70;;;;;;;;;;4755458;30;20600;-88
2022/01/20 09:29:45;;;;;;;5.83;3.40;;;;;;;;;;4769404;30;21182;-86
2022/01/20 09:33:11;;;;;;;3.63;2.93;;;;;;;;;;4741847;30;20970;-86
2022/01/20 09:36:16;;;;;;;5.50;3.27;;;;;;;;;;4754821;30;21202;-86
2022/01/20 09:39:20;;;;;;;5.07;3.23;;;;;;;;;;4759068;30;20603;-87
2022/01/20 09:42:38;;;;;;;5.30;2.83;;;;;;;;;;4750973;30;21195;-88
2022/01/20 09:45:45;;;;;;;4.20;2.97;;;;;;;;;;4743548;30;20583;-88
2022/01/20 09:48:50;;;;;;;4.47;3.53;;;;;;;;;;4754763;30;20583;-86
2022/01/20 09:52:00;;;;;;;7.60;3.23;;;;;;;;;;4759523;30;20642;-88
2022/01/20 09:55:19;;;;;;;5.60;2.83;;;;;;;;;;4762192;30;20608;-87
2022/01/20 09:58:24;;;;;;;4.73;2.93;;;;;;;;;;4743408;30;21156;-87
2022/01/20 10:01:49;;;;;;;5.70;3.27;;;;;;;;;;4762862;30;20664;-86
2022/01/20 10:04:59;;;;;;;6.03;2.87;;;;;;;;;;4758086;30;20603;-88
2022/01/20 10:08:13;;;;;;;6.17;2.70;;;;;;;;;;4750020;30;20952;-86
2022/01/20 10:11:29;;;;;;;4.50;2.60;;;;;;;;;;4748081;30;20650;-86
2022/01/20 10:15:07;;;;;;;6.23;2.43;;;;;;;;;;4777993;29;20555;-87
2022/01/20 10:18:33;;;;;;;5.90;2.73;;;;;;;;;;4760466;30;20595;-85
2022/01/20 10:21:43;;;;;;;6.97;3.20;;;;;;;;;;4741838;30;20632;-87
2022/01/20 10:25:14;;;;;;;5.33;2.37;;;;;;;;;;4768219;30;20623;-87
2022/01/20 10:29:01;;;;;;;8.47;2.63;;;;;;;;;;4756221;30;20608;-86
2022/01/20 10:32:11;;;;;;;3.97;2.13;;;;;;;;;;4757677;30;20595;-86
2022/01/20 10:35:24;;;;;;;7.20;2.47;;;;;;;;;;4758108;30;20666;-89
2022/01/20 10:38:29;;;;;;;4.40;2.50;;;;;;;;;;4768656;30;20551;-88
2022/01/20 10:41:39;;;;;;;8.40;2.53;;;;;;;;;;4749500;30;21016;-88
2022/01/20 10:44:53;;;;;;;4.90;2.53;;;;;;;;;;4751525;30;20878;-88
2022/01/20 10:47:59;;;;;;;8.73;2.60;;;;;;;;;;4750536;30;21085;-87
2022/01/20 10:51:20;;;;;;;18.37;9.53;;;;;;;;;;4751820;30;20702;-88
2022/01/20 10:54:42;;;;;;;28.13;11.40;;;;;;;;;;4758735;30;20611;-88
2022/01/20 10:57:51;;;;;;;8.93;2.93;;;;;;;;;;4757816;30;20198;-86
2022/01/20 11:00:56;;;;;;;7.63;2.57;;;;;;;;;;4790117;24;20682;-86
2022/01/20 11:04:03;;;;;;;3.47;2.07;;;;;;;;;;4778625;29;20554;-86
2022/01/20 11:07:09;;;;;;;4.83;2.10;;;;;;;;;;4777516;29;20551;-86
2022/01/20 11:10:17;;;;;;;5.63;2.67;;;;;;;;;;4762129;30;20626;-86
2022/01/20 11:13:25;;;;;;;7.13;2.37;;;;;;;;;;4754009;30;20632;-86
2022/01/20 11:16:40;;;;;;;7.03;2.23;;;;;;;;;;4759919;30;20639;-86
2022/01/20 11:19:46;;;;;;;4.70;2.30;;;;;;;;;;4752549;30;20608;-86
2022/01/20 11:22:58;;;;;;;6.53;2.50;;;;;;;;;;4761435;30;20631;-86
2022/01/20 11:26:07;;;;;;;3.90;2.10;;;;;;;;;;4753606;30;20604;-86
2022/01/20 11:29:23;;;;;;;3.50;2.30;;;;;;;;;;4756912;30;20600;-86
2022/01/20 11:32:35;;;;;;;6.63;2.77;;;;;;;;;;4759508;30;20635;-85
2022/01/20 11:35:59;;;;;;;5.27;2.30;;;;;;;;;;4753654;30;21136;-86
2022/01/20 11:39:05;;;;;;;7.43;2.20;;;;;;;;;;4750358;30;20611;-85
2022/01/20 11:42:19;;;;;;;4.07;2.20;;;;;;;;;;4751269;30;20667;-86
2022/01/20 11:45:50;;;;;;;7.20;2.30;;;;;;;;;;4763354;30;20595;-86
2022/01/20 11:48:56;;;;;;;5.30;2.20;;;;;;;;;;4778869;30;20619;-86
2022/01/20 11:52:00;;;;;;;3.80;1.77;;;;;;;;;;4758241;30;20237;-86
2022/01/20 11:55:11;;;;;;;3.67;1.80;;;;;;;;;;4752829;30;20568;-85
2022/01/20 11:58:16;;;;;;;6.60;2.20;;;;;;;;;;4750513;30;20545;-85
2022/01/20 12:01:20;;;;;;;4.70;1.97;;;;;;;;;;4759493;30;20651;-85
2022/01/20 12:04:39;;;;;;;5.33;2.47;;;;;;;;;;4749544;30;20579;-85
2022/01/20 12:08:08;;;;;;;10.30;2.80;;;;;;;;;;4751297;30;20596;-85
2022/01/20 12:11:14;;;;;;;4.73;1.80;;;;;;;;;;4751448;30;20663;-85
2022/01/20 12:14:36;;;;;;;4.17;1.90;;;;;;;;;;4756888;30;20556;-85
2022/01/20 12:17:49;;;;;;;3.33;1.57;;;;;;;;;;4750401;30;21194;-85
2022/01/20 12:20:54;;;;;;;6.63;1.87;;;;;;;;;;4751755;30;20655;-85
2022/01/20 12:23:59;;;;;;;6.33;1.80;;;;;;;;;;4739579;30;21104;-85
2022/01/20 12:27:17;;;;;;;8.23;2.63;;;;;;;;;;4751648;30;20620;-85
2022/01/20 12:30:23;;;;;;;4.53;1.80;;;;;;;;;;4765531;30;20238;-85
2022/01/20 12:33:30;;;;;;;4.50;2.17;;;;;;;;;;4762297;30;20673;-85
2022/01/20 12:36:39;;;;;;;5.77;2.03;;;;;;;;;;4747390;30;20668;-85
2022/01/20 12:39:43;;;;;;;4.93;1.93;;;;;;;;;;4753578;30;20632;-85
2022/01/20 12:42:48;;;;;;;7.73;2.03;;;;;;;;;;4752846;30;20623;-84
2022/01/20 12:45:55;;;;;;;4.07;1.90;;;;;;;;;;4739501;30;20540;-85
2022/01/20 12:49:05;;;;;;;4.30;1.83;;;;;;;;;;4759588;30;21170;-85
2022/01/20 12:52:10;;;;;;;5.07;2.17;;;;;;;;;;4757340;29;20650;-85
2022/01/20 12:55:17;;;;;;;4.63;1.77;;;;;;;;;;4765487;30;20631;-85
2022/01/20 12:58:21;;;;;;;6.30;1.83;;;;;;;;;;4759244;30;20687;-85
2022/01/20 13:01:37;;;;;;;9.53;2.10;;;;;;;;;;4762392;30;20655;-85
2022/01/20 13:04:41;;;;;;;2.13;1.30;;;;;;;;;;4752691;30;20591;-84
2022/01/20 13:07:52;;;;;;;3.07;1.30;;;;;;;;;;4759258;30;20547;-84
2022/01/20 13:11:13;;;;;;;4.33;1.67;;;;;;;;;;4769452;30;20655;-84
2022/01/20 13:14:17;;;;;;;5.80;2.23;;;;;;;;;;4769577;30;20603;-85
2022/01/20 13:17:27;;;;;;;6.53;2.27;;;;;;;;;;4752550;30;20644;-86
2022/01/20 13:20:32;;;;;;;2.77;1.73;;;;;;;;;;4757568;30;20658;-84
2022/01/20 13:23:56;;;;;;;4.73;1.60;;;;;;;;;;4753249;30;20596;-84
2022/01/20 13:27:02;;;;;;;6.03;2.30;;;;;;;;;;4761349;30;20551;-84
2022/01/20 13:30:06;;;;;;;5.07;2.33;;;;;;;;;;4771598;30;20552;-85
2022/01/20 13:33:16;;;;;;;7.63;2.93;;;;;;;;;;4752994;30;20608;-84
2022/01/20 13:36:22;;;;;;;4.63;2.50;;;;;;;;;;4772302;30;20635;-84
2022/01/20 13:39:38;;;;;;;6.13;2.90;;;;;;;;;;4759455;30;20604;-84
2022/01/20 13:45:00;;;;;;;4.93;2.70;;;;;;;;;;4770076;30;20552;-84
2022/01/20 13:46:19;;;;;;;12.40;7.17;;;;;;;;;;4761559;30;21198;-84
2022/01/20 13:49:24;;;;;;;7.63;2.70;;;;;;;;;;4773224;30;21148;-84
2022/01/20 13:52:37;;;;;;;3.73;2.40;;;;;;;;;;4768723;30;20603;-84
2022/01/20 13:55:47;;;;;;;7.33;3.07;;;;;;;;;;4765122;30;20609;-84
2022/01/20 13:59:05;;;;;;;2.20;1.77;;;;;;;;;;4751757;30;20591;-85
2022/01/20 14:02:09;;;;;;;2.23;1.87;;;;;;;;;;4762934;30;20660;-85
2022/01/20 14:05:14;;;;;;;2.50;1.20;;;;;;;;;;4740890;30;20553;-85
2022/01/20 14:08:19;;;;;;;3.50;1.20;;;;;;;;;;4748329;30;20599;-85
2022/01/20 14:11:23;;;;;;;3.77;1.20;;;;;;;;;;4754699;30;20660;-85
2022/01/20 14:14:27;;;;;;;2.10;1.30;;;;;;;;;;4764032;30;20592;-85
2022/01/20 14:17:36;;;;;;;3.47;1.30;;;;;;;;;;4784954;30;20976;-85
2022/01/20 14:20:42;;;;;;;2.60;1.20;;;;;;;;;;4753797;30;20648;-85
2022/01/20 14:23:46;;;;;;;1.93;1.10;;;;;;;;;;4762373;30;20545;-84
2022/01/20 14:26:54;;;;;;;4.33;1.20;;;;;;;;;;4751658;30;20552;-84
2022/01/20 14:30:00;;;;;;;2.90;1.23;;;;;;;;;;4772066;30;20553;-85
2022/01/20 14:33:06;;;;;;;3.33;1.13;;;;;;;;;;4751575;30;20619;-85
2022/01/20 14:36:10;;;;;;;5.90;1.40;;;;;;;;;;4751312;30;20604;-85
2022/01/20 14:39:14;;;;;;;6.30;1.47;;;;;;;;;;4752601;30;20595;-85
2022/01/20 14:42:18;;;;;;;5.77;3.53;;;;;;;;;;4766953;30;20655;-85
2022/01/20 14:45:23;;;;;;;12.60;5.10;;;;;;;;;;4778121;30;20603;-84
2022/01/20 14:48:28;;;;;;;3.80;1.10;;;;;;;;;;4756204;30;20591;-85
2022/01/20 14:51:33;;;;;;;4.77;1.30;;;;;;;;;;4757849;30;20663;-84
2022/01/20 14:54:37;;;;;;;3.17;1.07;;;;;;;;;;4761098;30;20603;-84
2022/01/20 14:57:41;;;;;;;2.73;1.20;;;;;;;;;;4767102;30;20643;-84
2022/01/20 15:00:45;;;;;;;3.90;2.30;;;;;;;;;;4751522;30;20667;-84
2022/01/20 15:03:49;;;;;;;4.10;1.40;;;;;;;;;;4751385;30;20937;-84
2022/01/20 15:06:53;;;;;;;3.33;2.63;;;;;;;;;;4759945;30;20600;-84
2022/01/20 15:09:57;;;;;;;4.90;1.80;;;;;;;;;;4752800;30;20569;-84
2022/01/20 15:13:02;;;;;;;2.57;1.10;;;;;;;;;;4751870;30;20604;-85
2022/01/20 15:16:06;;;;;;;3.50;1.40;;;;;;;;;;4759530;30;20619;-84
2022/01/20 15:19:10;;;;;;;5.27;1.33;;;;;;;;;;4758903;30;20624;-85
2022/01/20 15:22:15;;;;;;;2.30;1.40;;;;;;;;;;4757640;30;20634;-84
2022/01/20 15:25:19;;;;;;;5.00;2.17;;;;;;;;;;4777772;30;21119;-84
2022/01/20 15:28:24;;;;;;;4.27;1.80;;;;;;;;;;4777981;30;20544;-84
2022/01/20 15:31:30;;;;;;;9.60;4.90;;;;;;;;;;4757485;30;20635;-84
2022/01/20 15:34:34;;;;;;;7.13;3.47;;;;;;;;;;4767415;30;21319;-84
2022/01/20 15:37:38;;;;;;;10.60;4.23;;;;;;;;;;4767768;30;20599;-84
2022/01/20 15:40:43;;;;;;;3.40;2.40;;;;;;;;;;4767224;30;20634;-84
2022/01/20 15:43:47;;;;;;;4.87;2.33;;;;;;;;;;4757162;30;21170;-84
2022/01/20 15:46:51;;;;;;;6.03;2.57;;;;;;;;;;4757302;30;20556;-83
2022/01/20 15:49:55;;;;;;;8.10;2.77;;;;;;;;;;4755845;30;20589;-85
2022/01/20 15:53:06;;;;;;;7.37;1.70;;;;;;;;;;4752056;30;21210;-84
2022/01/20 15:56:10;;;;;;;3.50;2.30;;;;;;;;;;4768582;30;20548;-85
2022/01/20 15:59:14;;;;;;;7.37;5.30;;;;;;;;;;4767420;30;20548;-85
2022/01/20 16:02:18;;;;;;;8.40;4.47;;;;;;;;;;4767008;30;20646;-84
2022/01/20 16:05:23;;;;;;;19.97;8.43;;;;;;;;;;4756656;30;20560;-85
2022/01/20 16:08:27;;;;;;;30.73;15.97;;;;;;;;;;4757080;30;20543;-85
2022/01/20 16:11:31;;;;;;;29.03;13.70;;;;;;;;;;4767253;30;20637;-85
2022/01/20 16:14:35;;;;;;;17.30;7.10;;;;;;;;;;4767108;30;20547;-85
2022/01/20 16:17:39;;;;;;;21.37;11.57;;;;;;;;;;4767449;30;20619;-84
2022/01/20 16:20:45;;;;;;;29.20;14.77;;;;;;;;;;4764711;30;20674;-84
2022/01/20 16:23:51;;;;;;;13.17;5.53;;;;;;;;;;4747782;30;20651;-82
2022/01/20 16:26:56;;;;;;;10.27;4.77;;;;;;;;;;4733811;30;20597;-85
2022/01/20 16:30:01;;;;;;;11.37;6.63;;;;;;;;;;4735597;30;20951;-84
2022/01/20 16:33:05;;;;;;;7.73;4.23;;;;;;;;;;4734737;30;20616;-83
2022/01/20 16:36:09;;;;;;;3.93;2.93;;;;;;;;;;4708895;30;20559;-83
2022/01/20 16:39:13;;;;;;;5.10;1.97;;;;;;;;;;4748177;30;20600;-83
2022/01/20 16:42:17;;;;;;;5.13;2.70;;;;;;;;;;4742143;30;20976;-83
2022/01/20 16:45:22;;;;;;;3.90;1.97;;;;;;;;;;4742599;30;20553;-83
2022/01/20 16:48:26;;;;;;;7.37;2.43;;;;;;;;;;4748487;30;20593;-83
2022/01/20 16:51:30;;;;;;;5.43;1.57;;;;;;;;;;4734833;30;20632;-83
2022/01/20 16:54:35;;;;;;;3.50;1.80;;;;;;;;;;4755886;30;20569;-85
2022/01/20 16:57:39;;;;;;;9.17;3.00;;;;;;;;;;4751137;30;20641;-85
2022/01/20 17:00:44;;;;;;;7.43;2.50;;;;;;;;;;4757403;24;20702;-86
2022/01/20 17:03:48;;;;;;;21.67;13.97;;;;;;;;;;4734488;30;20600;-86
2022/01/20 17:06:52;;;;;;;15.50;9.93;;;;;;;;;;4725195;30;20689;-88
2022/01/20 17:09:58;;;;;;;24.07;14.20;;;;;;;;;;4734677;30;20577;-87
2022/01/20 17:13:02;;;;;;;13.53;8.43;;;;;;;;;;4713639;30;20614;-88
2022/01/20 17:16:06;;;;;;;13.13;7.53;;;;;;;;;;4739448;30;20624;-87
2022/01/20 17:19:12;;;;;;;4.80;3.37;;;;;;;;;;4726098;30;21240;-85
2022/01/20 17:22:16;;;;;;;8.17;3.60;;;;;;;;;;4744583;30;20648;-86
2022/01/20 17:25:20;;;;;;;9.00;2.10;;;;;;;;;;4701981;30;20599;-84
2022/01/20 17:28:24;;;;;;;10.93;6.93;;;;;;;;;;4699156;30;20597;-87
2022/01/20 17:31:29;;;;;;;31.40;12.17;;;;;;;;;;4727023;30;20665;-86
2022/01/20 17:34:34;;;;;;;63.50;20.00;;;;;;;;;;4691514;30;20605;-86
2022/01/20 17:37:39;;;;;;;33.07;16.67;;;;;;;;;;4703812;30;20648;-86
2022/01/20 17:40:45;;;;;;;18.00;10.03;;;;;;;;;;4717674;30;20652;-86
2022/01/20 17:43:50;;;;;;;12.40;5.30;;;;;;;;;;4730218;30;20567;-87
2022/01/20 17:46:56;;;;;;;9.83;4.43;;;;;;;;;;4708605;30;20609;-87
2022/01/20 17:50:01;;;;;;;4.80;2.63;;;;;;;;;;4711329;30;20585;-86
2022/01/20 17:53:06;;;;;;;4.00;2.33;;;;;;;;;;4714712;30;20589;-86
2022/01/20 17:56:10;;;;;;;4.20;1.90;;;;;;;;;;4739658;30;21171;-86
2022/01/20 17:59:14;;;;;;;8.23;1.80;;;;;;;;;;4727548;30;20614;-86
2022/01/20 18:02:18;;;;;;;8.50;2.33;;;;;;;;;;4726345;30;20677;-86
2022/01/20 18:05:22;;;;;;;4.33;1.97;;;;;;;;;;4707777;30;20563;-86
2022/01/20 18:08:26;;;;;;;4.17;2.00;;;;;;;;;;4716691;30;20613;-86
2022/01/20 18:11:31;;;;;;;5.10;2.90;;;;;;;;;;4690479;30;20642;-86
2022/01/20 18:14:36;;;;;;;5.63;3.10;;;;;;;;;;4689830;30;20559;-86
2022/01/20 18:17:40;;;;;;;14.83;7.23;;;;;;;;;;4709336;30;21249;-86
2022/01/20 18:20:44;;;;;;;11.43;4.73;;;;;;;;;;4711888;30;20670;-87
2022/01/20 18:23:48;;;;;;;31.03;14.27;;;;;;;;;;4709073;30;20606;-86
2022/01/20 18:26:53;;;;;;;39.17;18.13;;;;;;;;;;4717452;30;20633;-86
2022/01/20 18:29:57;;;;;;;34.13;16.27;;;;;;;;;;4718234;30;20943;-86
2022/01/20 18:33:01;;;;;;;18.33;8.70;;;;;;;;;;4716799;30;20607;-86
2022/01/20 18:36:06;;;;;;;16.13;8.17;;;;;;;;;;4710049;30;20631;-86
2022/01/20 18:39:10;;;;;;;11.00;5.57;;;;;;;;;;4710314;30;20658;-86
2022/01/20 18:42:14;;;;;;;6.70;4.00;;;;;;;;;;4699994;30;20646;-86
2022/01/20 18:45:18;;;;;;;8.30;4.07;;;;;;;;;;4716646;30;20610;-86
2022/01/20 18:48:23;;;;;;;9.50;2.20;;;;;;;;;;4716343;30;21142;-86
2022/01/20 18:51:27;;;;;;;8.70;2.70;;;;;;;;;;4716307;30;20649;-86
2022/01/20 18:54:31;;;;;;;7.50;3.03;;;;;;;;;;4707412;30;20598;-86
2022/01/20 18:57:35;;;;;;;3.93;2.40;;;;;;;;;;4712929;30;21188;-86
2022/01/20 19:00:40;;;;;;;4.00;2.07;;;;;;;;;;4717339;30;20618;-86
2022/01/20 19:03:44;;;;;;;6.93;2.83;;;;;;;;;;4710289;30;20618;-85
2022/01/20 19:06:48;;;;;;;6.20;2.73;;;;;;;;;;4725746;30;20606;-86
2022/01/20 19:09:53;;;;;;;8.17;3.00;;;;;;;;;;4703667;30;20940;-88
2022/01/20 19:12:57;;;;;;;6.30;2.27;;;;;;;;;;4706299;30;20602;-85
2022/01/20 19:16:02;;;;;;;5.73;2.37;;;;;;;;;;4714696;30;20566;-87
2022/01/20 19:19:06;;;;;;;11.67;4.13;;;;;;;;;;4709975;30;20602;-87
2022/01/20 19:22:11;;;;;;;13.83;6.23;;;;;;;;;;4699548;30;20658;-87
2022/01/20 19:25:17;;;;;;;12.23;5.87;;;;;;;;;;4696237;30;20639;-87
2022/01/20 19:28:21;;;;;;;11.57;5.20;;;;;;;;;;4711555;30;20619;-87
2022/01/20 19:31:25;;;;;;;9.67;3.77;;;;;;;;;;4725030;30;20658;-87
2022/01/20 19:34:30;;;;;;;25.10;9.70;;;;;;;;;;4725646;30;20893;-87
2022/01/20 19:37:36;;;;;;;10.87;4.70;;;;;;;;;;4708030;30;20644;-86
2022/01/20 19:40:40;;;;;;;10.67;2.80;;;;;;;;;;4710199;30;20661;-87
2022/01/20 19:43:45;;;;;;;10.20;2.60;;;;;;;;;;4714801;30;20601;-87
2022/01/20 19:46:49;;;;;;;9.00;2.90;;;;;;;;;;4716005;30;20617;-87